NORTHERN QUEENS  -  Heat Advisory Heat Advisory     Flash Flood Watch Flash Flood Watch     Rip Current Statement Rip Current Statement        SOUTHERN QUEENS  -  Heat Advisory Heat Advisory     Flash Flood Watch Flash Flood Watch     Rip Current Statement Rip Current Statement        NORTHERN NASSAU  -  Flash Flood Watch Flash Flood Watch     Rip Current Statement Rip Current Statement        SOUTHERN NASSAU  -  Flash Flood Watch Flash Flood Watch     Rip Current Statement Rip Current Statement        NORTHEAST SUFFOLK  -  Rip Current Statement Rip Current Statement        NORTHWEST SUFFOLK  -  Rip Current Statement Rip Current Statement        SOUTHEAST SUFFOLK  -  Rip Current Statement Rip Current Statement        SOUTHWEST SUFFOLK  -  Rip Current Statement Rip Current Statement      

Active alerts

Northern Queens
  Details for Northern Queens Heat Advisory  +2 additional alerts
Southern Queens
  Details for Southern Queens Heat Advisory  +2 additional alerts
Northern Nassau
  Details for Northern Nassau Flash Flood Watch  +1 additional alert
Southern Nassau
  Details for Southern Nassau Flash Flood Watch  +1 additional alert
Northwest Suffolk
  Details for Northwest Suffolk Rip Current Statement
Southwest Suffolk
  Details for Southwest Suffolk Rip Current Statement
Northeast Suffolk
  Details for Northeast Suffolk Rip Current Statement
Southeast Suffolk
  Details for Southeast Suffolk Rip Current Statement


WXM80 ListenWXM80 Stop

You find our weather info also at:

UK Metoffice

WeatherCloud

Weather Underground

Northeastern Weather Network

AWEKAS

Citizen Weather Observer Program (CWOP)

HAMweather, WeatherForYou, PWS Weather


Weather Underground History page Text

Daily Summary for October 3, 2016 Units:  English    Metric   Both
« Previous Day
Next Day »
Daily Weekly Monthly Yearly Custom
  High: Low: Average:
Temperature: 73.4 °F 59.6 °F 63.9 °F
Dew Point: 63.3 °F 57.9 °F 59.9 °F
Humidity: 97 % 64 % 87 %
Wind Speed: 3.7 mph 0.0 mph 0.4 mph
Wind Gust: 8.1 mph - -
Wind:- - South
Pressure: 30.09 in 29.95 in -
Precipitation: 0.00 in    
Historical Graphs
 
 
Tabular Data for October 3, 2016
Time Temperature Dew Point Pressure Wind Wind Speed Wind Gust Humidity Rainfall Rate (Hourly)
00:04 61.3 °F 59.6 °F 29.99 in Calm   1.2 mph 94 % 0.00 in
00:09 61.2 °F 59.5 °F 30.00 in Calm     94 % 0.00 in
00:14 61.1 °F 59.4 °F 30.00 in Calm   1.2 mph 94 % 0.00 in
00:19 61.0 °F 59.3 °F 30.00 in Calm     94 % 0.00 in
00:24 60.9 °F 59.2 °F 30.00 in Calm     94 % 0.00 in
00:29 60.8 °F 59.1 °F 29.99 in Calm     94 % 0.00 in
00:34 60.7 °F 59.0 °F 29.99 in Calm   1.2 mph 94 % 0.00 in
00:35 60.7 °F 59.0 °F 29.99 in Calm     94 % 0.00 in
00:40 60.7 °F 59.0 °F 29.99 in Calm     94 % 0.00 in
00:45 60.6 °F 58.9 °F 29.99 in Calm     94 % 0.00 in
00:50 60.6 °F 58.9 °F 29.99 in Calm     94 % 0.00 in
00:55 60.6 °F 58.9 °F 29.99 in Calm     94 % 0.00 in
01:00 60.5 °F 58.8 °F 29.99 in Calm     94 % 0.00 in
01:05 60.5 °F 59.1 °F 29.99 in Calm     95 % 0.00 in
01:10 60.5 °F 59.1 °F 29.99 in Calm     95 % 0.00 in
01:16 60.5 °F 59.1 °F 29.99 in Calm   3.0 mph 95 % 0.00 in
01:21 60.6 °F 59.2 °F 29.99 in Calm   1.0 mph 95 % 0.00 in
01:26 60.7 °F 59.3 °F 29.99 in Calm     95 % 0.00 in
01:31 60.7 °F 59.3 °F 29.99 in Calm   2.0 mph 95 % 0.00 in
01:36 60.7 °F 59.3 °F 29.99 in Calm     95 % 0.00 in
01:41 60.8 °F 59.4 °F 29.99 in Calm     95 % 0.00 in
01:46 60.8 °F 59.4 °F 29.99 in Calm     95 % 0.00 in
01:51 60.8 °F 59.7 °F 29.99 in Calm     96 % 0.00 in
01:56 60.9 °F 59.8 °F 29.99 in Calm     96 % 0.00 in
02:01 60.9 °F 59.8 °F 29.99 in Calm     96 % 0.00 in
02:06 60.9 °F 59.8 °F 29.99 in Calm     96 % 0.00 in
02:11 61.0 °F 59.9 °F 29.98 in Calm     96 % 0.00 in
02:16 61.0 °F 59.9 °F 29.99 in Calm     96 % 0.00 in
02:21 61.0 °F 59.9 °F 29.98 in Calm     96 % 0.00 in
02:26 61.0 °F 59.9 °F 29.98 in Calm     96 % 0.00 in
02:31 61.0 °F 59.9 °F 29.98 in Calm     96 % 0.00 in
02:36 61.0 °F 59.9 °F 29.97 in Calm     96 % 0.00 in
02:41 60.9 °F 59.8 °F 29.97 in Calm     96 % 0.00 in
02:47 60.9 °F 59.5 °F 29.97 in Calm     95 % 0.00 in
02:52 60.8 °F 59.4 °F 29.96 in Calm     95 % 0.00 in
02:57 60.7 °F 59.3 °F 29.96 in Calm     95 % 0.00 in
03:02 60.5 °F 59.1 °F 29.97 in Calm     95 % 0.00 in
03:07 60.4 °F 59.0 °F 29.97 in Calm     95 % 0.00 in
03:12 60.3 °F 58.9 °F 29.97 in Calm     95 % 0.00 in
03:17 60.2 °F 58.8 °F 29.97 in Calm     95 % 0.00 in
03:22 60.1 °F 58.7 °F 29.97 in Calm     95 % 0.00 in
03:27 60.0 °F 58.6 °F 29.97 in SW 0.2 mph 3.5 mph 95 % 0.00 in
03:32 59.9 °F 58.5 °F 29.97 in Calm   1.2 mph 95 % 0.00 in
03:38 59.8 °F 58.4 °F 29.97 in Calm     95 % 0.00 in
03:43 59.7 °F 58.3 °F 29.97 in Calm     95 % 0.00 in
03:48 59.7 °F 58.3 °F 29.97 in SW 0.1 mph 1.2 mph 95 % 0.00 in
03:58 59.6 °F 58.2 °F 29.97 in Calm     95 % 0.00 in
04:03 59.6 °F 58.2 °F 29.97 in Calm     95 % 0.00 in
04:08 59.6 °F 58.2 °F 29.97 in Calm   1.2 mph 95 % 0.00 in
04:13 59.6 °F 58.5 °F 29.97 in Calm   1.2 mph 96 % 0.00 in
04:18 59.7 °F 58.6 °F 29.96 in Calm   2.3 mph 96 % 0.00 in
04:23 59.8 °F 58.7 °F 29.96 in Calm   1.2 mph 96 % 0.00 in
04:29 60.0 °F 59.1 °F 29.96 in Calm     97 % 0.00 in
04:34 60.0 °F 59.1 °F 29.96 in Calm   1.2 mph 97 % 0.00 in
04:39 60.1 °F 59.2 °F 29.95 in Calm   1.2 mph 97 % 0.00 in
04:44 60.2 °F 59.3 °F 29.95 in Calm     97 % 0.00 in
04:49 60.2 °F 59.3 °F 29.95 in Calm     97 % 0.00 in
04:54 60.2 °F 59.3 °F 29.95 in Calm     97 % 0.00 in
04:59 60.2 °F 59.3 °F 29.95 in Calm     97 % 0.00 in
05:04 60.2 °F 59.3 °F 29.95 in Calm     97 % 0.00 in
05:09 60.2 °F 59.3 °F 29.95 in Calm     97 % 0.00 in
05:14 60.1 °F 59.2 °F 29.95 in Calm     97 % 0.00 in
05:20 60.1 °F 59.0 °F 29.95 in Calm     96 % 0.00 in
05:25 60.1 °F 59.2 °F 29.95 in Calm   1.2 mph 97 % 0.00 in
05:30 60.1 °F 59.2 °F 29.95 in Calm     97 % 0.00 in
05:35 60.1 °F 59.2 °F 29.96 in Calm     97 % 0.00 in
05:40 60.1 °F 59.2 °F 29.96 in Calm     97 % 0.00 in
05:45 60.1 °F 59.2 °F 29.95 in Calm     97 % 0.00 in
05:50 60.1 °F 59.2 °F 29.96 in WSW 0.3 mph 1.2 mph 97 % 0.00 in
05:55 60.0 °F 59.1 °F 29.96 in Calm     97 % 0.00 in
06:00 60.0 °F 59.1 °F 29.96 in Calm     97 % 0.00 in
06:05 60.0 °F 59.1 °F 29.96 in Calm     97 % 0.00 in
06:10 60.0 °F 59.1 °F 29.96 in Calm     97 % 0.00 in
06:15 59.9 °F 58.8 °F 29.96 in Calm     96 % 0.00 in
06:21 59.9 °F 59.0 °F 29.96 in Calm     97 % 0.00 in
06:26 59.9 °F 59.0 °F 29.96 in Calm     97 % 0.00 in
06:30 59.9 °F 58.8 °F 29.96 in Calm     96 % 0.00 in
06:36 59.9 °F 59.0 °F 29.96 in Calm     97 % 0.00 in
06:41 59.9 °F 59.0 °F 29.96 in Calm   1.0 mph 97 % 0.00 in
06:46 59.9 °F 59.1 °F 29.96 in Calm   2.0 mph 97 % 0.00 in
06:51 60.0 °F 59.1 °F 29.96 in WSW 1.0 mph 2.0 mph 97 % 0.00 in
06:56 60.0 °F 59.1 °F 29.96 in Calm   2.0 mph 97 % 0.00 in
07:01 60.2 °F 59.3 °F 29.96 in WSW 0.1 mph 1.2 mph 97 % 0.00 in
07:06 60.2 °F 59.3 °F 29.95 in Calm     97 % 0.00 in
07:11 60.3 °F 59.4 °F 29.95 in Calm     97 % 0.00 in
07:16 60.3 °F 59.4 °F 29.96 in Calm     97 % 0.00 in
07:21 60.4 °F 59.5 °F 29.96 in Calm     97 % 0.00 in
07:26 60.4 °F 59.5 °F 29.96 in Calm     97 % 0.00 in
07:31 60.5 °F 59.6 °F 29.97 in WSW 0.1 mph 1.2 mph 97 % 0.00 in
07:36 60.5 °F 59.6 °F 29.97 in Calm     97 % 0.00 in
07:41 60.5 °F 59.6 °F 29.97 in Calm     97 % 0.00 in
07:46 60.6 °F 59.7 °F 29.97 in Calm   1.0 mph 97 % 0.00 in
07:51 60.7 °F 59.8 °F 29.97 in Calm     97 % 0.00 in
07:57 60.8 °F 59.9 °F 29.97 in Calm     97 % 0.00 in
08:02 60.8 °F 59.9 °F 29.97 in Calm     97 % 0.00 in
08:07 60.9 °F 60.0 °F 29.97 in WSW 1.2 mph 2.3 mph 97 % 0.00 in
08:12 61.0 °F 60.1 °F 29.97 in WNW 1.8 mph 3.5 mph 97 % 0.00 in
08:17 61.1 °F 60.2 °F 29.97 in WNW 1.1 mph 3.5 mph 97 % 0.00 in
08:22 61.2 °F 60.3 °F 29.98 in Calm   1.2 mph 97 % 0.00 in
08:27 61.2 °F 60.3 °F 29.98 in WNW 1.3 mph 2.0 mph 97 % 0.00 in
08:32 61.2 °F 60.3 °F 29.98 in WNW 0.3 mph 3.5 mph 97 % 0.00 in
08:37 61.3 °F 60.4 °F 29.98 in WNW 1.9 mph 5.0 mph 97 % 0.00 in
08:43 61.3 °F 60.4 °F 29.98 in WSW 1.8 mph 2.0 mph 97 % 0.00 in
08:48 61.3 °F 60.4 °F 29.99 in NW 0.6 mph 2.3 mph 97 % 0.00 in
08:53 61.3 °F 60.4 °F 29.99 in WNW 2.0 mph 3.5 mph 97 % 0.00 in
08:58 61.3 °F 60.4 °F 29.98 in WNW 1.2 mph 3.5 mph 97 % 0.00 in
09:03 61.3 °F 60.4 °F 29.99 in WNW 1.2 mph 4.6 mph 97 % 0.00 in
09:08 61.3 °F 60.4 °F 29.99 in WNW 2.6 mph 3.5 mph 97 % 0.00 in
09:13 61.4 °F 60.5 °F 29.99 in WNW 1.6 mph 5.8 mph 97 % 0.00 in
09:18 61.6 °F 60.7 °F 29.99 in NW 0.1 mph 1.2 mph 97 % 0.00 in
09:23 61.7 °F 60.8 °F 29.99 in WNW 3.5 mph 6.9 mph 97 % 0.00 in
09:28 61.8 °F 60.6 °F 29.99 in North 1.9 mph 8.1 mph 96 % 0.00 in
09:34 62.0 °F 60.8 °F 29.99 in North 1.5 mph 3.5 mph 96 % 0.00 in
09:39 62.2 °F 60.8 °F 29.99 in NW 3.7 mph 4.0 mph 95 % 0.00 in
09:44 62.3 °F 60.8 °F 29.99 in NNW 2.0 mph 3.5 mph 95 % 0.00 in
09:49 62.6 °F 60.8 °F 30.00 in NNW 0.5 mph 2.0 mph 94 % 0.00 in
09:54 62.9 °F 61.1 °F 29.99 in NW 0.1 mph 1.2 mph 94 % 0.00 in
09:59 63.2 °F 61.1 °F 29.99 in NW 1.1 mph 4.6 mph 93 % 0.00 in
10:04 63.5 °F 61.1 °F 29.99 in NNE 2.1 mph 3.5 mph 92 % 0.00 in
10:09 63.8 °F 61.1 °F 30.00 in North 0.7 mph 2.3 mph 91 % 0.00 in
10:14 64.0 °F 61.3 °F 30.00 in Calm   2.3 mph 91 % 0.00 in
10:19 64.2 °F 60.9 °F 29.99 in North 1.5 mph 4.6 mph 89 % 0.00 in
10:25 64.4 °F 60.8 °F 30.00 in NNW 3.0 mph 5.0 mph 88 % 0.00 in
10:30 64.5 °F 60.9 °F 30.00 in North 2.2 mph 3.5 mph 88 % 0.00 in
10:35 64.7 °F 61.1 °F 30.00 in NNE 2.5 mph 3.5 mph 88 % 0.00 in
10:40 64.8 °F 60.8 °F 30.00 in NW 1.2 mph 3.5 mph 87 % 0.00 in
10:45 64.8 °F 60.8 °F 30.00 in NNE 2.7 mph 3.5 mph 87 % 0.00 in
10:50 64.9 °F 61.3 °F 30.00 in NNE 0.2 mph 1.2 mph 88 % 0.00 in
10:55 64.9 °F 60.9 °F 30.00 in Calm   1.2 mph 87 % 0.00 in
11:00 64.9 °F 60.9 °F 30.01 in North 1.5 mph 4.0 mph 87 % 0.00 in
11:05 64.8 °F 60.8 °F 30.01 in North 0.2 mph 2.3 mph 87 % 0.00 in
11:10 64.9 °F 60.9 °F 30.01 in North 0.2 mph 1.2 mph 87 % 0.00 in
11:16 64.9 °F 60.9 °F 30.01 in Calm   3.0 mph 87 % 0.00 in
11:21 64.9 °F 60.9 °F 30.01 in Calm   3.0 mph 87 % 0.00 in
11:26 64.9 °F 60.9 °F 30.01 in Calm   3.0 mph 87 % 0.00 in
11:31 64.9 °F 60.6 °F 30.01 in North 0.1 mph 2.3 mph 86 % 0.00 in
11:36 64.9 °F 60.6 °F 30.01 in North 1.0 mph 4.0 mph 86 % 0.00 in
11:46 64.9 °F 60.6 °F 30.01 in NNE 2.0 mph 5.0 mph 86 % 0.00 in
11:51 64.9 °F 60.6 °F 30.01 in Calm   4.0 mph 86 % 0.00 in
11:56 64.9 °F 60.6 °F 30.00 in Calm   2.0 mph 86 % 0.00 in
12:01 65.0 °F 60.7 °F 30.01 in NE 0.4 mph 2.3 mph 86 % 0.00 in
12:06 65.0 °F 60.7 °F 30.01 in NE 1.0 mph 3.0 mph 86 % 0.00 in
12:11 65.2 °F 60.9 °F 30.01 in NE 1.0 mph 2.0 mph 86 % 0.00 in
12:16 65.3 °F 61.0 °F 30.01 in Calm   1.0 mph 86 % 0.00 in
12:21 65.4 °F 61.1 °F 30.01 in Calm   3.0 mph 86 % 0.00 in
12:26 65.6 °F 61.3 °F 30.00 in Calm   1.0 mph 86 % 0.00 in
12:31 65.8 °F 60.8 °F 30.01 in Calm   2.0 mph 84 % 0.00 in
12:35 66.0 °F 61.0 °F 30.00 in NNE 0.3 mph 1.2 mph 84 % 0.00 in
12:41 66.3 °F 61.3 °F 30.00 in Calm   1.0 mph 84 % 0.00 in
12:46 66.8 °F 61.8 °F 30.00 in NNE 1.0 mph 3.0 mph 84 % 0.00 in
12:51 67.1 °F 61.4 °F 30.00 in NNE 1.0 mph 2.0 mph 82 % 0.00 in
12:56 67.4 °F 61.7 °F 30.00 in Calm   3.0 mph 82 % 0.00 in
13:01 68.4 °F 62.3 °F 30.00 in NE 1.2 mph 2.3 mph 81 % 0.00 in
13:06 69.1 °F 62.0 °F 30.00 in NE 1.0 mph 4.0 mph 78 % 0.00 in
13:11 69.9 °F 62.3 °F 30.00 in NNE 1.0 mph 6.0 mph 77 % 0.00 in
13:16 70.4 °F 62.4 °F 30.00 in NNE 1.0 mph 4.0 mph 76 % 0.00 in
13:21 70.8 °F 63.3 °F 30.00 in NNE 1.0 mph 3.0 mph 77 % 0.00 in
13:26 71.1 °F 62.0 °F 30.00 in NE 2.0 mph 4.0 mph 73 % 0.00 in
13:31 71.4 °F 63.1 °F 29.99 in NE 1.0 mph 3.0 mph 75 % 0.00 in
13:35 71.7 °F 63.0 °F 29.99 in NNE 2.4 mph 4.6 mph 74 % 0.00 in
13:41 72.0 °F 62.4 °F 29.99 in Calm   2.0 mph 72 % 0.00 in
13:46 72.3 °F 62.8 °F 29.99 in Calm   2.0 mph 72 % 0.00 in
13:51 72.4 °F 61.7 °F 29.99 in NE 1.0 mph 4.0 mph 69 % 0.00 in
13:56 72.5 °F 62.1 °F 29.99 in Calm   3.0 mph 70 % 0.00 in
14:01 72.6 °F 62.7 °F 29.98 in Calm   1.2 mph 71 % 0.00 in
14:06 72.6 °F 62.3 °F 29.98 in Calm     70 % 0.00 in
14:11 72.7 °F 61.9 °F 29.98 in WNW 3.0 mph 4.6 mph 69 % 0.00 in
14:16 72.8 °F 61.6 °F 29.98 in WNW 2.6 mph 4.6 mph 68 % 0.00 in
14:21 72.9 °F 61.7 °F 29.98 in West 1.7 mph 4.0 mph 68 % 0.00 in
14:26 73.0 °F 62.2 °F 29.98 in NNE 2.8 mph 4.0 mph 69 % 0.00 in
14:36 73.0 °F 61.8 °F 29.98 in North 2.6 mph 3.5 mph 68 % 0.00 in
14:41 73.1 °F 62.3 °F 29.98 in NNE 0.6 mph 3.5 mph 69 % 0.00 in
14:46 73.3 °F 62.5 °F 29.98 in NE 1.9 mph 2.3 mph 69 % 0.00 in
14:52 73.3 °F 62.1 °F 29.98 in North 0.8 mph 3.5 mph 68 % 0.00 in
14:57 73.4 °F 61.3 °F 29.98 in WSW 0.1 mph 4.6 mph 66 % 0.00 in
15:02 73.3 °F 61.3 °F 29.98 in West 0.1 mph 1.2 mph 66 % 0.00 in
15:07 73.4 °F 61.3 °F 29.98 in WSW 3.0 mph 4.6 mph 66 % 0.00 in
15:12 73.4 °F 61.3 °F 29.98 in WNW 0.6 mph 3.5 mph 66 % 0.00 in
15:17 73.3 °F 60.8 °F 29.98 in WNW 0.5 mph 2.3 mph 65 % 0.00 in
15:22 73.1 °F 60.2 °F 29.98 in WNW 1.6 mph 3.5 mph 64 % 0.00 in
15:27 73.0 °F 61.0 °F 29.97 in SW 0.3 mph 3.5 mph 66 % 0.00 in
15:32 72.8 °F 61.6 °F 29.97 in SW 2.6 mph 6.0 mph 68 % 0.00 in
15:37 72.6 °F 60.2 °F 29.97 in West 1.5 mph 3.0 mph 65 % 0.00 in
15:43 72.4 °F 60.4 °F 29.97 in WSW 1.2 mph 3.0 mph 66 % 0.00 in
15:48 72.3 °F 60.7 °F 29.97 in WNW 1.0 mph 3.5 mph 67 % 0.00 in
15:53 72.1 °F 60.5 °F 29.97 in WNW 0.4 mph 1.2 mph 67 % 0.00 in
15:58 71.8 °F 59.8 °F 29.97 in SW 0.4 mph 2.3 mph 66 % 0.00 in
16:03 71.5 °F 60.0 °F 29.97 in Calm     67 % 0.00 in
16:08 71.3 °F 59.8 °F 29.97 in WSW 0.1 mph 2.3 mph 67 % 0.00 in
16:13 71.2 °F 59.3 °F 29.97 in WSW 0.6 mph 3.5 mph 66 % 0.00 in
16:18 71.1 °F 59.2 °F 29.97 in South 1.4 mph 2.3 mph 66 % 0.00 in
16:23 71.0 °F 59.5 °F 29.97 in SSW 0.7 mph 2.3 mph 67 % 0.00 in
16:28 70.9 °F 58.5 °F 29.97 in Calm   1.2 mph 65 % 0.00 in
16:34 70.8 °F 59.3 °F 29.97 in Calm     67 % 0.00 in
16:39 70.6 °F 59.9 °F 29.97 in Calm     69 % 0.00 in
16:44 70.5 °F 60.6 °F 29.97 in Calm     71 % 0.00 in
16:49 70.4 °F 60.5 °F 29.97 in Calm   1.2 mph 71 % 0.00 in
16:54 70.3 °F 60.8 °F 29.97 in NE 0.1 mph 1.2 mph 72 % 0.00 in
16:59 70.3 °F 60.8 °F 29.98 in NE 1.3 mph 2.3 mph 72 % 0.00 in
17:04 70.2 °F 60.7 °F 29.98 in NE 0.2 mph 2.3 mph 72 % 0.00 in
17:09 70.2 °F 60.4 °F 29.98 in NE 0.4 mph 1.2 mph 71 % 0.00 in
17:14 70.2 °F 60.4 °F 29.98 in Calm     71 % 0.00 in
17:19 70.1 °F 60.3 °F 29.98 in Calm     71 % 0.00 in
17:25 70.0 °F 60.6 °F 29.98 in Calm     72 % 0.00 in
17:30 69.9 °F 60.5 °F 29.98 in Calm     72 % 0.00 in
17:35 69.8 °F 60.4 °F 29.99 in Calm     72 % 0.00 in
17:40 69.7 °F 60.7 °F 29.99 in NE 0.1 mph 1.2 mph 73 % 0.00 in
17:45 69.6 °F 60.6 °F 29.99 in NE 0.3 mph 1.2 mph 73 % 0.00 in
17:50 69.4 °F 60.4 °F 29.99 in Calm     73 % 0.00 in
17:55 69.2 °F 60.2 °F 29.99 in Calm     73 % 0.00 in
18:00 69.1 °F 60.5 °F 29.99 in Calm     74 % 0.00 in
18:06 68.9 °F 60.3 °F 29.99 in Calm     74 % 0.00 in
18:11 68.8 °F 60.5 °F 29.99 in Calm     75 % 0.00 in
18:16 68.6 °F 60.4 °F 29.99 in Calm     75 % 0.00 in
18:21 68.5 °F 60.6 °F 29.99 in Calm     76 % 0.00 in
18:26 68.2 °F 60.7 °F 29.99 in Calm     77 % 0.00 in
18:31 67.9 °F 60.4 °F 29.99 in Calm     77 % 0.00 in
18:36 67.6 °F 60.9 °F 30.00 in Calm     79 % 0.00 in
18:41 67.3 °F 60.6 °F 30.00 in Calm     79 % 0.00 in
18:46 67.0 °F 60.6 °F 30.00 in Calm     80 % 0.00 in
18:51 66.8 °F 60.4 °F 30.00 in Calm     80 % 0.00 in
18:56 66.5 °F 60.5 °F 30.00 in Calm   1.0 mph 81 % 0.00 in
19:01 66.2 °F 60.2 °F 30.00 in Calm     81 % 0.00 in
19:06 66.1 °F 60.1 °F 30.01 in Calm     81 % 0.00 in
19:11 65.8 °F 60.2 °F 30.01 in Calm     82 % 0.00 in
19:16 65.6 °F 59.9 °F 30.01 in Calm     82 % 0.00 in
19:21 65.2 °F 59.9 °F 30.01 in Calm     83 % 0.00 in
19:25 64.9 °F 59.9 °F 30.01 in Calm     84 % 0.00 in
19:31 64.6 °F 59.7 °F 30.02 in Calm     84 % 0.00 in
19:36 64.4 °F 59.5 °F 30.02 in Calm   1.0 mph 84 % 0.00 in
19:41 64.3 °F 59.4 °F 30.02 in Calm     84 % 0.00 in
19:46 64.1 °F 59.2 °F 30.02 in Calm     84 % 0.00 in
19:51 63.9 °F 59.3 °F 30.02 in Calm     85 % 0.00 in
19:56 63.7 °F 59.1 °F 30.03 in Calm     85 % 0.00 in
20:01 63.5 °F 58.9 °F 30.03 in Calm     85 % 0.00 in
20:06 63.3 °F 59.0 °F 30.03 in Calm     86 % 0.00 in
20:11 63.1 °F 58.8 °F 30.04 in Calm     86 % 0.00 in
20:16 62.9 °F 58.6 °F 30.04 in Calm     86 % 0.00 in
20:21 62.7 °F 58.8 °F 30.04 in Calm     87 % 0.00 in
20:26 62.6 °F 58.7 °F 30.04 in Calm     87 % 0.00 in
20:31 62.3 °F 58.4 °F 30.05 in Calm     87 % 0.00 in
20:36 62.2 °F 58.6 °F 30.05 in Calm     88 % 0.00 in
20:41 62.0 °F 58.4 °F 30.05 in Calm     88 % 0.00 in
20:47 61.9 °F 58.6 °F 30.05 in Calm     89 % 0.00 in
20:52 61.7 °F 58.4 °F 30.05 in Calm     89 % 0.00 in
20:57 61.5 °F 57.9 °F 30.06 in Calm     88 % 0.00 in
21:02 61.4 °F 58.1 °F 30.06 in Calm     89 % 0.00 in
21:07 61.2 °F 57.9 °F 30.06 in Calm     89 % 0.00 in
21:17 61.0 °F 58.0 °F 30.06 in Calm     90 % 0.00 in
21:22 60.9 °F 58.3 °F 30.06 in Calm     91 % 0.00 in
21:27 60.9 °F 58.3 °F 30.06 in Calm     91 % 0.00 in
21:32 60.8 °F 58.5 °F 30.06 in NE 0.6 mph 2.3 mph 92 % 0.00 in
21:38 60.8 °F 58.8 °F 30.06 in Calm   1.2 mph 93 % 0.00 in
21:43 60.8 °F 58.8 °F 30.06 in Calm     93 % 0.00 in
21:48 60.7 °F 58.7 °F 30.06 in Calm     93 % 0.00 in
21:53 60.6 °F 58.6 °F 30.07 in Calm     93 % 0.00 in
21:58 60.5 °F 58.5 °F 30.06 in Calm   1.2 mph 93 % 0.00 in
22:03 60.5 °F 58.5 °F 30.06 in Calm     93 % 0.00 in
22:08 60.4 °F 58.4 °F 30.06 in Calm     93 % 0.00 in
22:13 60.3 °F 58.3 °F 30.07 in Calm     93 % 0.00 in
22:18 60.2 °F 58.2 °F 30.07 in Calm     93 % 0.00 in
22:23 60.2 °F 58.2 °F 30.07 in Calm     93 % 0.00 in
22:29 60.1 °F 58.1 °F 30.07 in Calm     93 % 0.00 in
22:34 60.0 °F 58.0 °F 30.07 in Calm     93 % 0.00 in
22:39 60.0 °F 58.0 °F 30.07 in Calm     93 % 0.00 in
22:44 60.0 °F 58.3 °F 30.07 in Calm     94 % 0.00 in
22:49 59.9 °F 58.2 °F 30.08 in Calm     94 % 0.00 in
22:54 59.9 °F 58.2 °F 30.08 in Calm   1.0 mph 94 % 0.00 in
22:59 59.9 °F 58.2 °F 30.08 in Calm     94 % 0.00 in
23:04 59.9 °F 58.2 °F 30.08 in Calm     94 % 0.00 in
23:09 59.9 °F 58.2 °F 30.08 in Calm     94 % 0.00 in
23:14 59.9 °F 58.2 °F 30.08 in Calm     94 % 0.00 in
23:20 59.9 °F 58.2 °F 30.08 in Calm     94 % 0.00 in
23:25 59.9 °F 58.2 °F 30.08 in Calm     94 % 0.00 in
23:30 59.9 °F 58.2 °F 30.08 in Calm     94 % 0.00 in
23:35 59.9 °F 58.2 °F 30.08 in Calm     94 % 0.00 in
23:40 59.8 °F 58.1 °F 30.08 in Calm     94 % 0.00 in
23:45 59.8 °F 58.1 °F 30.09 in Calm     94 % 0.00 in
23:50 59.7 °F 58.0 °F 30.09 in Calm     94 % 0.00 in
23:55 59.6 °F 57.9 °F 30.09 in Calm     94 % 0.00 in
Crab Meadow Weather
Compliments of Weather Underground - 3 mb

Script developed by  Jim McMurry - jmcmurry@mwt.net Adapted for the template by  Wim van der Kuil - Leuven-Template.eu

Weather Terms: Heavy Snow Warning - Snowfall of 6 inches or more in 12 hours or less, or 8 inches or more in 24 hours or less.